createdAt,value
2023-02-27T00:00:18.141Z,92.70
2023-02-27T00:02:47.863Z,92.70
2023-02-27T00:05:16.775Z,92.80
2023-02-27T00:07:45.033Z,92.80
2023-02-27T00:10:13.873Z,92.80
2023-02-27T00:12:43.152Z,92.80
2023-02-27T00:15:12.433Z,92.70
2023-02-27T00:17:40.521Z,92.70
2023-02-27T00:20:12.357Z,92.70
2023-02-27T00:22:40.813Z,92.80
2023-02-27T00:25:09.116Z,92.80
2023-02-27T00:27:37.101Z,92.70
2023-02-27T00:30:10.499Z,92.80
2023-02-27T00:32:38.686Z,92.80
2023-02-27T00:35:09.182Z,92.90
2023-02-27T00:37:37.933Z,93.00
2023-02-27T00:40:06.803Z,92.90
2023-02-27T00:42:35.432Z,93.10
2023-02-27T00:45:05.218Z,93.10
2023-02-27T00:47:34.418Z,93.20
2023-02-27T00:50:02.128Z,93.30
2023-02-27T00:52:30.039Z,93.40
2023-02-27T00:54:59.784Z,93.50
2023-02-27T00:57:27.954Z,93.50
2023-02-27T00:59:55.785Z,93.60
2023-02-27T01:02:23.468Z,93.70
2023-02-27T01:04:51.100Z,93.80
2023-02-27T01:07:18.826Z,93.80
2023-02-27T01:09:46.576Z,93.90
2023-02-27T01:12:15.264Z,93.90
2023-02-27T01:14:44.985Z,94.00
2023-02-27T01:17:13.062Z,94.10
2023-02-27T01:19:40.838Z,94.10
2023-02-27T01:22:08.430Z,94.20
2023-02-27T01:24:36.351Z,94.20
2023-02-27T01:27:03.875Z,94.30
2023-02-27T01:29:31.406Z,94.40
2023-02-27T01:31:59.008Z,94.40
2023-02-27T01:34:26.540Z,94.50
2023-02-27T01:36:54.420Z,94.50
2023-02-27T01:39:21.980Z,94.60
2023-02-27T01:41:49.537Z,94.60
2023-02-27T01:44:17.286Z,94.70
2023-02-27T01:46:44.716Z,94.70
2023-02-27T01:49:18.265Z,94.80
2023-02-27T01:51:55.073Z,94.90
2023-02-27T01:54:26.373Z,95.00
2023-02-27T01:56:54.163Z,95.00
2023-02-27T01:59:22.517Z,95.00
2023-02-27T02:01:51.635Z,95.10
2023-02-27T02:04:27.452Z,95.10
2023-02-27T02:07:04.027Z,95.10
2023-02-27T02:09:35.964Z,95.20
2023-02-27T02:12:04.290Z,95.20
2023-02-27T02:14:31.718Z,95.20
2023-02-27T02:17:27.889Z,95.20
2023-02-27T02:20:08.136Z,95.30
2023-02-27T02:23:18.790Z,95.30
2023-02-27T02:25:59.703Z,95.40
2023-02-27T02:28:57.568Z,95.20
2023-02-27T02:31:31.764Z,95.40
2023-02-27T02:34:05.361Z,95.30
2023-02-27T02:37:01.497Z,95.40
2023-02-27T02:39:40.088Z,95.50
2023-02-27T02:42:29.042Z,95.40
2023-02-27T02:45:11.919Z,95.60
2023-02-27T02:47:46.624Z,95.60
2023-02-27T02:50:52.901Z,95.60
2023-02-27T02:53:41.448Z,95.70
2023-02-27T02:56:23.780Z,95.60
2023-02-27T02:59:16.087Z,95.80
2023-02-27T03:02:00.285Z,95.90
2023-02-27T03:04:34.395Z,95.90
2023-02-27T03:07:29.995Z,95.90
2023-02-27T03:10:19.556Z,96.00
2023-02-27T03:12:58.244Z,96.00
2023-02-27T03:15:31.147Z,96.00
2023-02-27T03:18:06.896Z,96.00
2023-02-27T03:20:43.084Z,96.00
2023-02-27T03:23:17.338Z,96.10
2023-02-27T03:25:47.251Z,96.10
2023-02-27T03:28:22.001Z,96.10
2023-02-27T03:31:01.021Z,96.10
2023-02-27T03:33:53.568Z,96.20
2023-02-27T03:36:41.168Z,96.20
2023-02-27T03:39:40.199Z,96.20
2023-02-27T03:42:19.749Z,96.30
2023-02-27T03:45:31.012Z,96.30
2023-02-27T03:47:59.092Z,96.40
2023-02-27T03:50:27.268Z,96.30
2023-02-27T03:52:55.934Z,96.40
2023-02-27T03:55:32.782Z,96.40
2023-02-27T03:58:01.269Z,96.40
2023-02-27T04:00:29.876Z,96.50
2023-02-27T04:03:00.354Z,96.50
2023-02-27T04:05:29.438Z,96.50
2023-02-27T04:08:03.199Z,96.60
2023-02-27T04:10:33.508Z,96.60
2023-02-27T04:13:09.889Z,96.70
2023-02-27T04:16:03.172Z,96.70
2023-02-27T04:18:50.598Z,96.80
2023-02-27T04:21:21.359Z,96.80
2023-02-27T04:23:49.171Z,96.70
2023-02-27T04:26:21.686Z,96.70
2023-02-27T04:28:59.503Z,96.70
2023-02-27T04:31:39.117Z,96.80
2023-02-27T04:34:28.264Z,96.80
2023-02-27T04:37:10.519Z,96.80
2023-02-27T04:39:53.887Z,96.80
2023-02-27T04:42:26.416Z,96.80
2023-02-27T04:44:57.733Z,96.90
2023-02-27T04:47:28.726Z,96.90
2023-02-27T04:50:02.355Z,96.90
2023-02-27T04:52:57.844Z,97.00
2023-02-27T04:55:34.356Z,97.00
2023-02-27T04:58:15.450Z,97.00
2023-02-27T05:00:44.664Z,97.00
2023-02-27T05:03:18.317Z,96.90
2023-02-27T05:05:47.876Z,97.00
2023-02-27T05:08:26.451Z,97.10
2023-02-27T05:11:22.231Z,97.10
2023-02-27T05:13:54.862Z,97.20
2023-02-27T05:16:35.632Z,97.10
2023-02-27T05:19:04.005Z,97.20
2023-02-27T05:21:40.349Z,97.20
2023-02-27T05:24:40.827Z,97.30
2023-02-27T05:27:33.345Z,97.30
2023-02-27T05:30:06.716Z,97.30
2023-02-27T05:32:46.487Z,97.50
2023-02-27T05:35:25.064Z,97.40
2023-02-27T05:38:02.485Z,97.40
2023-02-27T05:40:41.942Z,97.40
2023-02-27T05:43:17.975Z,97.50
2023-02-27T05:45:48.184Z,97.40
2023-02-27T05:48:21.183Z,97.50
2023-02-27T05:50:52.411Z,97.50
2023-02-27T05:53:22.059Z,97.50
2023-02-27T05:55:53.596Z,97.50
2023-02-27T05:58:36.246Z,97.60
2023-02-27T06:01:09.818Z,97.60
2023-02-27T06:03:39.028Z,97.60
2023-02-27T06:06:11.558Z,97.60
2023-02-27T06:08:39.155Z,97.60
2023-02-27T06:11:06.909Z,97.60
2023-02-27T06:13:34.651Z,97.60
2023-02-27T06:16:02.180Z,97.70
2023-02-27T06:18:29.712Z,97.70
2023-02-27T06:20:57.532Z,97.70
2023-02-27T06:23:24.949Z,97.80
2023-02-27T06:25:52.393Z,97.80
2023-02-27T06:28:19.846Z,97.80
2023-02-27T06:30:47.800Z,97.80
2023-02-27T06:33:15.360Z,97.80
2023-02-27T06:35:43.018Z,97.80
2023-02-27T06:38:10.738Z,97.80
2023-02-27T06:40:38.550Z,97.80
2023-02-27T06:43:06.062Z,97.90
2023-02-27T06:45:33.434Z,97.90
2023-02-27T06:48:00.980Z,97.90
2023-02-27T06:50:28.903Z,98.00
2023-02-27T06:52:56.620Z,98.10
2023-02-27T06:55:25.695Z,98.10
2023-02-27T06:57:53.545Z,98.20
2023-02-27T07:00:21.709Z,98.20
2023-02-27T07:02:49.427Z,98.30
2023-02-27T07:05:18.109Z,98.40
2023-02-27T07:07:46.161Z,98.40
2023-02-27T07:10:14.658Z,98.50
2023-02-27T07:12:42.347Z,98.60
2023-02-27T07:15:11.001Z,98.60
2023-02-27T07:17:38.596Z,98.60
2023-02-27T07:20:08.914Z,98.70
2023-02-27T07:22:38.094Z,98.80
2023-02-27T07:25:07.345Z,98.80
2023-02-27T07:27:35.000Z,98.80
2023-02-27T07:30:02.828Z,98.80
2023-02-27T07:32:30.837Z,98.80
2023-02-27T07:34:58.467Z,98.80
2023-02-27T07:37:28.013Z,98.80
2023-02-27T07:39:56.161Z,98.90
2023-02-27T07:42:24.616Z,98.90
2023-02-27T07:44:52.330Z,99.00
2023-02-27T07:47:19.809Z,99.00
2023-02-27T07:49:47.402Z,99.10
2023-02-27T07:52:15.129Z,99.20
2023-02-27T07:54:42.852Z,99.30
2023-02-27T07:57:10.730Z,99.40
2023-02-27T07:59:38.911Z,99.50
2023-02-27T08:02:07.459Z,99.50
2023-02-27T08:04:35.217Z,99.60
2023-02-27T08:07:03.184Z,99.60
2023-02-27T08:09:31.257Z,99.60
2023-02-27T08:11:58.950Z,99.70
2023-02-27T08:14:26.400Z,99.70
2023-02-27T08:16:54.255Z,99.90
2023-02-27T08:19:21.838Z,99.90
2023-02-27T08:21:49.829Z,99.90
2023-02-27T08:24:17.749Z,99.90
2023-02-27T08:26:45.170Z,99.90
2023-02-27T08:29:13.727Z,99.90
2023-02-27T08:31:41.805Z,99.90
2023-02-27T08:34:10.831Z,99.90
2023-02-27T08:36:39.418Z,99.90
2023-02-27T08:39:07.982Z,99.90
2023-02-27T08:41:36.299Z,99.90
2023-02-27T08:44:04.148Z,99.90
2023-02-27T08:46:31.742Z,99.90
2023-02-27T08:48:59.207Z,99.90
2023-02-27T08:51:26.964Z,99.90
2023-02-27T08:53:58.777Z,99.90
2023-02-27T08:56:27.249Z,99.90
2023-02-27T08:58:55.982Z,99.90
2023-02-27T09:01:26.036Z,99.90
2023-02-27T09:03:53.749Z,99.90
2023-02-27T09:06:21.102Z,99.90
2023-02-27T09:08:48.501Z,99.90
2023-02-27T09:11:16.291Z,99.90
2023-02-27T09:13:43.678Z,99.90
2023-02-27T09:16:11.419Z,99.90
2023-02-27T09:18:38.882Z,99.90
2023-02-27T09:21:06.599Z,99.90
2023-02-27T09:23:34.242Z,99.90
2023-02-27T09:26:01.743Z,99.90
2023-02-27T09:28:29.293Z,99.90
2023-02-27T09:31:05.848Z,99.90
2023-02-27T09:33:35.174Z,99.90
2023-02-27T09:36:03.152Z,99.90
2023-02-27T09:38:30.804Z,99.90
2023-02-27T09:40:59.570Z,99.90
2023-02-27T09:43:47.746Z,99.90
2023-02-27T09:46:21.441Z,99.90
2023-02-27T09:49:01.161Z,99.90
2023-02-27T09:51:29.623Z,99.90
2023-02-27T09:54:00.538Z,99.90
2023-02-27T09:56:32.877Z,99.90
2023-02-27T09:59:19.743Z,99.90
2023-02-27T10:01:53.070Z,99.90
2023-02-27T10:04:45.428Z,99.90
2023-02-27T10:07:22.231Z,99.90
2023-02-27T10:09:59.145Z,99.90
2023-02-27T10:12:55.031Z,99.90
2023-02-27T10:15:40.682Z,99.90
2023-02-27T10:18:28.309Z,99.90
2023-02-27T10:21:20.838Z,99.70
2023-02-27T10:24:06.768Z,99.50
2023-02-27T10:26:41.741Z,99.30
2023-02-27T10:29:27.349Z,99.10
2023-02-27T10:32:10.736Z,99.00
2023-02-27T10:34:41.101Z,99.00
2023-02-27T10:37:14.744Z,98.80
2023-02-27T10:39:47.415Z,98.70
2023-02-27T10:42:16.250Z,98.40
2023-02-27T10:44:44.196Z,98.30
2023-02-27T10:47:15.405Z,98.00
2023-02-27T10:49:44.166Z,97.70
2023-02-27T10:52:14.710Z,97.50
2023-02-27T10:54:43.192Z,97.20
2023-02-27T10:57:35.041Z,97.00
2023-02-27T11:00:06.772Z,96.60
2023-02-27T11:02:40.301Z,96.10
2023-02-27T11:05:27.910Z,95.70
2023-02-27T11:08:10.494Z,95.40
2023-02-27T11:10:47.132Z,95.30
2023-02-27T11:13:24.668Z,95.20
2023-02-27T11:16:21.847Z,95.00
2023-02-27T11:18:51.760Z,95.00
2023-02-27T11:21:27.938Z,95.10
2023-02-27T11:24:17.855Z,95.10
2023-02-27T11:27:22.682Z,95.00
2023-02-27T11:30:04.812Z,94.90
2023-02-27T11:32:53.411Z,94.80
2023-02-27T11:35:31.525Z,94.60
2023-02-27T11:38:02.365Z,94.70
2023-02-27T11:41:00.778Z,94.50
2023-02-27T11:43:31.854Z,94.30
2023-02-27T11:46:32.879Z,94.20
2023-02-27T11:49:25.707Z,94.30
2023-02-27T11:52:20.793Z,93.90
2023-02-27T11:54:56.315Z,93.60
2023-02-27T11:57:38.069Z,93.00
2023-02-27T12:00:08.343Z,92.70
2023-02-27T12:02:55.205Z,92.30
2023-02-27T12:05:39.922Z,92.20
2023-02-27T12:08:16.112Z,92.50
2023-02-27T12:10:55.599Z,92.30
2023-02-27T12:13:34.958Z,92.20
2023-02-27T12:16:18.095Z,92.40
2023-02-27T12:18:55.592Z,92.00
2023-02-27T12:21:28.436Z,91.80
2023-02-27T12:24:25.975Z,91.70
2023-02-27T12:27:04.746Z,91.70
2023-02-27T12:29:36.666Z,91.70
2023-02-27T12:32:18.199Z,91.40
2023-02-27T12:34:51.243Z,90.80
2023-02-27T12:37:28.640Z,90.60
2023-02-27T12:39:59.951Z,89.80
2023-02-27T12:42:42.309Z,88.70
2023-02-27T12:45:26.792Z,87.20
2023-02-27T12:48:03.249Z,87.00
2023-02-27T12:50:50.870Z,86.20
2023-02-27T12:53:18.277Z,84.70
2023-02-27T12:56:17.172Z,84.90
2023-02-27T12:59:02.629Z,84.10
2023-02-27T13:01:58.514Z,84.10
2023-02-27T13:04:43.957Z,83.90
2023-02-27T13:07:20.569Z,84.40
2023-02-27T13:09:59.552Z,84.50
2023-02-27T13:12:36.289Z,84.60
2023-02-27T13:15:18.155Z,84.70
2023-02-27T13:17:59.266Z,84.40
2023-02-27T13:20:26.551Z,84.20
2023-02-27T13:23:20.760Z,85.50
2023-02-27T13:25:52.817Z,85.00
2023-02-27T13:28:25.304Z,84.20
2023-02-27T13:31:07.548Z,83.20
2023-02-27T13:33:53.816Z,82.70
2023-02-27T13:36:24.686Z,82.40
2023-02-27T13:38:53.416Z,81.80
2023-02-27T13:41:20.787Z,83.20
2023-02-27T13:43:55.526Z,82.50
2023-02-27T13:46:27.180Z,80.50
2023-02-27T13:49:04.566Z,79.20
2023-02-27T13:51:35.842Z,78.00
2023-02-27T13:54:33.624Z,76.30
2023-02-27T13:57:28.193Z,75.20
2023-02-27T14:00:01.755Z,73.60
2023-02-27T14:02:56.433Z,73.30
2023-02-27T14:05:33.155Z,71.70
2023-02-27T14:08:06.056Z,71.00
2023-02-27T14:10:35.577Z,69.80
2023-02-27T14:13:03.827Z,69.50
2023-02-27T14:15:32.541Z,69.20
2023-02-27T14:18:14.221Z,68.60
2023-02-27T14:20:49.603Z,68.20
2023-02-27T14:23:26.570Z,68.50
2023-02-27T14:25:55.862Z,69.20
2023-02-27T14:28:30.945Z,69.50
2023-02-27T14:31:05.720Z,69.70
2023-02-27T14:33:46.259Z,70.10
2023-02-27T14:36:29.831Z,70.30
2023-02-27T14:39:00.170Z,70.80
2023-02-27T14:41:55.154Z,71.30
2023-02-27T14:44:25.052Z,70.90
2023-02-27T14:46:55.303Z,70.90
2023-02-27T14:49:27.922Z,71.20
2023-02-27T14:51:56.026Z,71.50
2023-02-27T14:54:28.150Z,71.40
2023-02-27T14:57:04.480Z,70.80
2023-02-27T14:59:52.988Z,69.80
2023-02-27T15:02:24.527Z,69.30
2023-02-27T15:05:01.102Z,69.20
2023-02-27T15:07:32.167Z,68.70
2023-02-27T15:10:04.186Z,68.80
2023-02-27T15:12:37.005Z,68.60
2023-02-27T15:15:09.050Z,68.70
2023-02-27T15:17:39.816Z,68.80
2023-02-27T15:20:29.876Z,69.00
2023-02-27T15:22:58.218Z,69.20
2023-02-27T15:25:34.923Z,70.10
2023-02-27T15:28:15.727Z,69.00
2023-02-27T15:30:51.252Z,68.90
2023-02-27T15:33:22.488Z,69.20
2023-02-27T15:35:50.211Z,67.80
2023-02-27T15:38:27.703Z,67.20
2023-02-27T15:40:57.224Z,66.40
2023-02-27T15:43:30.190Z,66.70
2023-02-27T15:45:58.445Z,66.20
2023-02-27T15:48:26.576Z,67.00
2023-02-27T15:50:58.199Z,66.10
2023-02-27T15:53:28.008Z,66.30
2023-02-27T15:56:01.798Z,66.60
2023-02-27T15:58:31.641Z,67.10
2023-02-27T16:01:07.491Z,67.60
2023-02-27T16:03:39.097Z,68.00
2023-02-27T16:06:19.305Z,68.40
2023-02-27T16:09:18.724Z,68.70
2023-02-27T16:11:46.262Z,69.00
2023-02-27T16:14:41.020Z,69.30
2023-02-27T16:17:52.135Z,69.50
2023-02-27T16:20:30.850Z,69.80
2023-02-27T16:23:07.152Z,70.30
2023-02-27T16:25:34.785Z,70.70
2023-02-27T16:28:02.504Z,71.20
2023-02-27T16:30:29.897Z,71.40
2023-02-27T16:33:00.979Z,71.60
2023-02-27T16:35:29.313Z,72.00
2023-02-27T16:38:03.517Z,73.00
2023-02-27T16:40:31.086Z,72.70
2023-02-27T16:42:59.067Z,73.10
2023-02-27T16:45:28.167Z,73.60
2023-02-27T16:47:58.182Z,74.00
2023-02-27T16:50:35.501Z,74.40
2023-02-27T16:53:02.932Z,74.80
2023-02-27T16:55:33.527Z,75.20
2023-02-27T16:58:01.375Z,75.60
2023-02-27T17:00:28.959Z,76.10
2023-02-27T17:02:56.352Z,76.50
2023-02-27T17:05:24.338Z,76.90
2023-02-27T17:07:52.154Z,77.30
2023-02-27T17:10:22.341Z,77.80
2023-02-27T17:12:49.880Z,78.40
2023-02-27T17:15:18.063Z,78.90
2023-02-27T17:17:46.083Z,79.40
2023-02-27T17:20:14.636Z,79.90
2023-02-27T17:22:44.449Z,80.40
2023-02-27T17:25:13.187Z,81.00
2023-02-27T17:27:44.449Z,81.40
2023-02-27T17:30:13.347Z,81.90
2023-02-27T17:32:40.722Z,82.20
2023-02-27T17:35:08.954Z,82.50
2023-02-27T17:37:36.633Z,83.60
2023-02-27T17:40:05.918Z,83.90
2023-02-27T17:42:35.926Z,83.90
2023-02-27T17:45:05.595Z,83.90
2023-02-27T17:47:36.868Z,84.10
2023-02-27T17:50:05.738Z,84.30
2023-02-27T17:52:38.345Z,84.60
2023-02-27T17:55:08.636Z,84.90
2023-02-27T17:57:37.838Z,85.10
2023-02-27T18:00:06.634Z,85.50
2023-02-27T18:02:36.013Z,85.80
2023-02-27T18:05:06.747Z,86.10
2023-02-27T18:07:34.646Z,86.40
2023-02-27T18:10:05.503Z,86.50
2023-02-27T18:12:33.538Z,86.70
2023-02-27T18:15:02.066Z,86.80
2023-02-27T18:17:29.725Z,87.10
2023-02-27T18:19:58.053Z,87.20
2023-02-27T18:22:26.530Z,87.30
2023-02-27T18:24:55.086Z,87.30
2023-02-27T18:27:22.761Z,87.20
2023-02-27T18:29:50.377Z,87.20
2023-02-27T18:32:18.315Z,87.30
2023-02-27T18:34:45.897Z,87.50
2023-02-27T18:37:13.364Z,87.60
2023-02-27T18:39:42.241Z,87.80
2023-02-27T18:42:09.719Z,88.00
2023-02-27T18:44:38.582Z,88.30
2023-02-27T18:47:06.925Z,88.60
2023-02-27T18:49:34.671Z,88.90
2023-02-27T18:52:02.835Z,89.10
2023-02-27T18:54:30.254Z,89.30
2023-02-27T18:56:57.815Z,89.40
2023-02-27T18:59:25.232Z,89.60
2023-02-27T19:01:53.803Z,89.80
2023-02-27T19:04:21.302Z,89.90
2023-02-27T19:06:48.708Z,90.00
2023-02-27T19:09:16.360Z,90.10
2023-02-27T19:11:45.970Z,90.20
2023-02-27T19:14:14.815Z,90.60
2023-02-27T19:16:42.714Z,90.30
2023-02-27T19:19:10.939Z,90.30
2023-02-27T19:21:38.489Z,90.50
2023-02-27T19:24:06.900Z,90.60
2023-02-27T19:26:34.777Z,90.50
2023-02-27T19:29:02.599Z,90.30
2023-02-27T19:31:30.590Z,90.20
2023-02-27T19:33:58.240Z,90.20
2023-02-27T19:36:28.062Z,90.10
2023-02-27T19:38:56.140Z,90.10
2023-02-27T19:41:25.032Z,90.10
2023-02-27T19:43:53.464Z,90.20
2023-02-27T19:46:24.307Z,90.10
2023-02-27T19:48:57.870Z,90.10
2023-02-27T19:51:26.389Z,90.10
2023-02-27T19:53:54.383Z,90.10
2023-02-27T19:56:24.624Z,90.10
2023-02-27T19:58:54.097Z,90.20
2023-02-27T20:01:26.701Z,90.20
2023-02-27T20:03:56.180Z,90.20
2023-02-27T20:06:25.967Z,90.30
2023-02-27T20:08:54.210Z,90.40
2023-02-27T20:11:22.370Z,90.30
2023-02-27T20:13:51.492Z,90.30
2023-02-27T20:16:22.066Z,90.40
2023-02-27T20:18:50.205Z,90.40
2023-02-27T20:21:20.660Z,90.40
2023-02-27T20:23:50.185Z,90.50
2023-02-27T20:26:37.212Z,90.50
2023-02-27T20:29:18.165Z,90.60
2023-02-27T20:31:46.902Z,90.70
2023-02-27T20:34:16.935Z,90.60
2023-02-27T20:36:44.499Z,90.70
2023-02-27T20:39:12.512Z,90.70
2023-02-27T20:41:40.354Z,90.70
2023-02-27T20:44:08.734Z,90.80
2023-02-27T20:46:37.950Z,90.90
2023-02-27T20:49:06.314Z,90.80
2023-02-27T20:51:36.240Z,90.90
2023-02-27T20:54:06.753Z,90.90
2023-02-27T20:56:37.833Z,90.90
2023-02-27T20:59:07.297Z,90.80
2023-02-27T21:01:36.630Z,90.90
2023-02-27T21:04:05.707Z,90.90
2023-02-27T21:06:34.814Z,90.90
2023-02-27T21:09:05.764Z,90.90
2023-02-27T21:11:33.456Z,90.90
2023-02-27T21:14:08.179Z,90.80
2023-02-27T21:16:36.722Z,90.90
2023-02-27T21:19:04.347Z,90.90
2023-02-27T21:21:33.513Z,91.00
2023-02-27T21:24:01.794Z,91.00
2023-02-27T21:26:33.887Z,91.00
2023-02-27T21:29:18.135Z,91.00
2023-02-27T21:31:49.039Z,91.00
2023-02-27T21:34:21.328Z,91.00
2023-02-27T21:36:49.286Z,91.00
2023-02-27T21:39:20.934Z,91.00
2023-02-27T21:41:49.271Z,91.10
2023-02-27T21:44:18.952Z,91.10
2023-02-27T21:46:47.015Z,91.10
2023-02-27T21:49:20.380Z,91.10
2023-02-27T21:51:48.021Z,91.20
2023-02-27T21:54:17.455Z,91.10
2023-02-27T21:56:46.919Z,91.20
2023-02-27T21:59:15.021Z,91.10
2023-02-27T22:01:47.235Z,91.10
2023-02-27T22:04:16.666Z,91.10
2023-02-27T22:06:44.722Z,91.10
2023-02-27T22:09:12.711Z,91.10
2023-02-27T22:11:41.028Z,91.00
2023-02-27T22:14:09.902Z,91.00
2023-02-27T22:16:37.492Z,91.00
2023-02-27T22:19:10.103Z,91.00
2023-02-27T22:21:38.420Z,91.30
2023-02-27T22:24:07.333Z,91.10
2023-02-27T22:26:35.669Z,91.00
2023-02-27T22:29:04.263Z,91.00
2023-02-27T22:31:34.688Z,90.90
2023-02-27T22:34:17.955Z,90.90
2023-02-27T22:36:50.383Z,90.80
2023-02-27T22:39:19.112Z,90.80
2023-02-27T22:41:46.489Z,90.80
2023-02-27T22:44:16.050Z,90.90
2023-02-27T22:46:47.320Z,91.00
2023-02-27T22:49:18.667Z,91.00
2023-02-27T22:51:47.301Z,91.20
2023-02-27T22:54:16.701Z,91.20
2023-02-27T22:56:44.465Z,91.40
2023-02-27T22:59:11.942Z,91.50
2023-02-27T23:01:39.572Z,91.60
2023-02-27T23:04:11.338Z,91.70
2023-02-27T23:06:40.225Z,91.80
2023-02-27T23:09:10.825Z,91.90
2023-02-27T23:11:38.928Z,92.00
2023-02-27T23:14:07.875Z,92.00
2023-02-27T23:16:36.089Z,92.10
2023-02-27T23:19:04.475Z,92.20
2023-02-27T23:21:36.142Z,92.20
2023-02-27T23:24:09.163Z,92.30
2023-02-27T23:26:42.592Z,92.40
2023-02-27T23:29:10.371Z,92.50
2023-02-27T23:31:38.421Z,92.50
2023-02-27T23:34:06.440Z,92.60
2023-02-27T23:36:38.170Z,92.70
2023-02-27T23:39:06.354Z,92.80
2023-02-27T23:41:34.437Z,92.80
2023-02-27T23:44:21.882Z,92.90
2023-02-27T23:46:49.741Z,93.00
2023-02-27T23:49:17.158Z,93.00
2023-02-27T23:51:44.803Z,93.10
2023-02-27T23:54:12.278Z,93.20
2023-02-27T23:56:39.770Z,93.30
2023-02-27T23:59:07.448Z,93.40
